Time;durP1;ratioP1;P1;durP2;ratioP2;P2;SDS_P1;SDS_P2;PMS_P1;PMS_P2;Temp;Humidity;BMP_temperature;BMP_pressure;BME280_temperature;BME280_humidity;BME280_pressure;Samples;Min_cycle;Max_cycle;Signal;HPM_P1;HPM_P2
2023/12/10 00:00:44;;;;;;;36.20;9.27;;;8.30;99.90;;;;;;4933728;28;20714;-75
2023/12/10 00:03:11;;;;;;;37.75;9.00;;;8.30;99.90;;;;;;4938104;28;20079;-75
2023/12/10 00:05:38;;;;;;;34.17;8.02;;;8.30;99.90;;;;;;4919567;28;20054;-73
2023/12/10 00:08:05;;;;;;;35.25;7.38;;;8.20;99.90;;;;;;4923008;28;20540;-73
2023/12/10 00:10:32;;;;;;;37.72;6.88;;;8.10;99.90;;;;;;4922275;28;20387;-74
2023/12/10 00:13:02;;;;;;;36.88;7.43;;;8.10;99.90;;;;;;4935067;28;20078;-73
2023/12/10 00:15:30;;;;;;;40.88;7.78;;;8.00;99.90;;;;;;4922748;28;20114;-74
2023/12/10 00:17:57;;;;;;;29.58;7.43;;;8.00;99.90;;;;;;4925391;28;20047;-74
2023/12/10 00:20:25;;;;;;;35.28;7.95;;;7.90;99.90;;;;;;4905351;28;20051;-74
2023/12/10 00:22:52;;;;;;;38.13;9.02;;;7.80;99.90;;;;;;4920124;28;20142;-73
2023/12/10 00:25:18;;;;;;;47.15;9.40;;;7.80;99.90;;;;;;4933740;28;20062;-74
2023/12/10 00:27:46;;;;;;;35.00;8.77;;;7.80;99.90;;;;;;4921359;28;20794;-73
2023/12/10 00:30:14;;;;;;;45.15;9.38;;;7.70;99.90;;;;;;4918434;28;20118;-73
2023/12/10 00:32:41;;;;;;;49.28;9.02;;;7.70;99.90;;;;;;4917590;28;20050;-73
2023/12/10 00:35:08;;;;;;;33.05;7.78;;;7.70;99.90;;;;;;4920044;28;20051;-74
2023/12/10 00:37:35;;;;;;;36.85;7.63;;;7.70;99.90;;;;;;4915089;28;20058;-74
2023/12/10 00:40:06;;;;;;;35.67;8.32;;;7.70;99.90;;;;;;4928048;28;20043;-73
2023/12/10 00:42:39;;;;;;;35.42;7.35;;;7.70;99.90;;;;;;4921455;28;20055;-74
2023/12/10 00:45:07;;;;;;;39.33;7.75;;;7.70;99.90;;;;;;4921785;28;20134;-75
2023/12/10 00:47:41;;;;;;;37.53;8.02;;;7.70;99.90;;;;;;4928217;28;20088;-72
2023/12/10 00:50:08;;;;;;;33.85;7.63;;;7.70;99.90;;;;;;4913429;28;20099;-72
2023/12/10 00:52:37;;;;;;;33.25;7.68;;;7.80;99.90;;;;;;4937200;28;20047;-71
2023/12/10 00:55:04;;;;;;;44.03;7.80;;;7.80;99.90;;;;;;4902987;28;20066;-72
2023/12/10 00:57:31;;;;;;;27.35;6.80;;;7.80;99.90;;;;;;4930954;28;20047;-71
2023/12/10 00:59:59;;;;;;;44.17;9.50;;;7.80;99.90;;;;;;4915903;28;20054;-73
2023/12/10 01:02:25;;;;;;;37.50;8.00;;;7.80;99.90;;;;;;4919425;29;20054;-72
2023/12/10 01:04:53;;;;;;;28.48;7.55;;;7.80;99.90;;;;;;4912067;28;20753;-74
2023/12/10 01:07:20;;;;;;;39.28;8.57;;;7.80;99.90;;;;;;4918107;28;20125;-74
2023/12/10 01:09:47;;;;;;;44.25;8.50;;;7.70;99.90;;;;;;4931193;28;20155;-73
2023/12/10 01:12:14;;;;;;;51.50;10.40;;;7.60;99.90;;;;;;4924549;28;20043;-73
2023/12/10 01:14:41;;;;;;;46.35;8.48;;;7.60;99.90;;;;;;4932354;28;20640;-73
2023/12/10 01:17:08;;;;;;;35.22;8.43;;;7.60;99.90;;;;;;4925052;28;20047;-73
2023/12/10 01:19:35;;;;;;;52.33;9.35;;;7.50;99.90;;;;;;4920984;28;20043;-69
2023/12/10 01:22:02;;;;;;;38.33;6.95;;;7.60;99.90;;;;;;4915930;28;20059;-71
2023/12/10 01:24:30;;;;;;;41.17;9.55;;;7.50;99.90;;;;;;4905065;29;20603;-72
2023/12/10 01:26:57;;;;;;;30.42;8.05;;;7.50;99.90;;;;;;4899271;28;20119;-72
2023/12/10 01:29:25;;;;;;;39.17;8.25;;;7.60;99.90;;;;;;4931564;28;20032;-72
2023/12/10 01:31:52;;;;;;;36.05;8.55;;;7.60;99.90;;;;;;4912887;28;20572;-73
2023/12/10 01:34:19;;;;;;;48.80;7.80;;;7.60;99.90;;;;;;4921295;28;20042;-72
2023/12/10 01:36:56;;;;;;;29.92;7.30;;;7.70;99.90;;;;;;4907266;28;20516;-71
2023/12/10 01:39:23;;;;;;;34.78;8.70;;;7.70;99.90;;;;;;4922172;29;20155;-71
2023/12/10 01:41:50;;;;;;;42.88;7.93;;;7.70;99.90;;;;;;4917433;28;20058;-72
2023/12/10 01:44:17;;;;;;;37.95;8.52;;;7.80;99.90;;;;;;4923714;28;20109;-70
2023/12/10 01:46:45;;;;;;;43.72;11.15;;;7.80;99.90;;;;;;4918059;28;20055;-71
2023/12/10 01:49:14;;;;;;;27.83;8.30;;;7.90;99.90;;;;;;4932800;28;20047;-71
2023/12/10 01:51:43;;;;;;;41.17;9.57;;;7.90;99.90;;;;;;4918833;28;20054;-72
2023/12/10 01:54:21;;;;;;;36.90;11.07;;;7.90;99.90;;;;;;4935911;28;20046;-72
2023/12/10 01:56:51;;;;;;;43.90;11.05;;;7.90;99.90;;;;;;4931548;28;20079;-72
2023/12/10 01:59:32;;;;;;;35.17;9.48;;;7.90;99.90;;;;;;4921331;28;20074;-72
2023/12/10 02:01:59;;;;;;;30.45;9.32;;;7.90;99.90;;;;;;4922131;28;21441;-73
2023/12/10 02:04:27;;;;;;;42.08;10.80;;;7.90;99.90;;;;;;4929255;28;20052;-73
2023/12/10 02:06:54;;;;;;;34.15;10.43;;;7.90;99.90;;;;;;4922896;28;20134;-73
2023/12/10 02:09:21;;;;;;;41.13;10.60;;;8.00;99.90;;;;;;4933544;28;20473;-71
2023/12/10 02:11:48;;;;;;;37.47;10.75;;;7.90;99.90;;;;;;4918502;28;20106;-72
2023/12/10 02:14:15;;;;;;;29.27;10.82;;;8.00;99.90;;;;;;4920681;29;20051;-71
2023/12/10 02:16:42;;;;;;;31.05;11.82;;;7.90;99.90;;;;;;4934845;28;20050;-70
2023/12/10 02:19:09;;;;;;;32.85;11.25;;;8.00;99.90;;;;;;4911939;28;20474;-71
2023/12/10 02:21:37;;;;;;;31.48;12.07;;;7.90;99.90;;;;;;4917990;28;20106;-70
2023/12/10 02:24:11;;;;;;;33.03;10.43;;;7.90;99.90;;;;;;4936280;28;20066;-71
2023/12/10 02:26:38;;;;;;;37.20;11.82;;;7.90;99.90;;;;;;4918782;28;20055;-71
2023/12/10 02:29:06;;;;;;;41.15;12.05;;;7.90;99.90;;;;;;4914049;28;20512;-72
2023/12/10 02:31:32;;;;;;;41.63;13.70;;;7.90;99.90;;;;;;4916694;29;20055;-72
2023/12/10 02:34:00;;;;;;;33.88;12.48;;;7.90;99.90;;;;;;4920589;28;21557;-72
2023/12/10 02:36:27;;;;;;;31.40;10.65;;;8.00;99.90;;;;;;4932895;28;20103;-73
2023/12/10 02:38:54;;;;;;;35.22;13.38;;;7.90;99.90;;;;;;4912487;28;20051;-72
2023/12/10 02:41:21;;;;;;;42.17;12.93;;;7.90;99.90;;;;;;4922695;28;20055;-72
2023/12/10 02:43:48;;;;;;;28.42;11.75;;;8.00;99.90;;;;;;4925109;28;20415;-71
2023/12/10 02:46:14;;;;;;;42.97;13.98;;;7.90;99.90;;;;;;4916471;29;20046;-72
2023/12/10 02:48:41;;;;;;;37.67;11.63;;;8.00;99.90;;;;;;4915288;28;20561;-71
2023/12/10 02:51:09;;;;;;;29.70;11.32;;;8.00;99.90;;;;;;4915985;28;20054;-73
2023/12/10 02:53:36;;;;;;;39.65;13.98;;;8.00;99.90;;;;;;4900812;28;20066;-70
2023/12/10 02:56:03;;;;;;;40.78;12.30;;;8.00;99.90;;;;;;4911044;28;20043;-72
2023/12/10 02:58:30;;;;;;;36.67;12.02;;;8.00;99.90;;;;;;4921222;29;20150;-73
2023/12/10 03:00:58;;;;;;;33.60;12.60;;;8.00;99.90;;;;;;4913984;28;20067;-73
2023/12/10 03:03:25;;;;;;;29.83;12.73;;;8.00;99.90;;;;;;4917698;29;20059;-73
2023/12/10 03:05:52;;;;;;;26.10;12.88;;;8.10;99.90;;;;;;4913112;28;20058;-71
2023/12/10 03:08:20;;;;;;;36.92;12.85;;;8.10;99.90;;;;;;4948476;28;20590;-73
2023/12/10 03:10:47;;;;;;;32.80;12.35;;;8.10;99.90;;;;;;4916988;28;20043;-71
2023/12/10 03:13:14;;;;;;;26.42;13.18;;;8.20;99.90;;;;;;4921109;29;20063;-72
2023/12/10 03:15:43;;;;;;;37.15;13.30;;;8.20;99.90;;;;;;4924298;28;20461;-72
2023/12/10 03:18:10;;;;;;;23.25;12.73;;;8.20;99.90;;;;;;4925320;28;20059;-73
2023/12/10 03:20:37;;;;;;;25.45;12.20;;;8.20;99.90;;;;;;4898011;28;20040;-73
2023/12/10 03:23:04;;;;;;;35.83;14.55;;;8.20;99.90;;;;;;4914937;28;20047;-73
2023/12/10 03:25:31;;;;;;;29.70;13.43;;;8.20;99.90;;;;;;4913508;29;20053;-73
2023/12/10 03:27:57;;;;;;;29.10;14.55;;;8.20;99.90;;;;;;4908213;28;20490;-73
2023/12/10 03:30:25;;;;;;;27.35;12.70;;;8.20;99.90;;;;;;4918218;28;20063;-74
2023/12/10 03:32:51;;;;;;;23.92;14.00;;;8.30;99.90;;;;;;4923090;28;20078;-74
2023/12/10 03:35:18;;;;;;;36.15;12.50;;;8.20;99.90;;;;;;4922905;28;20260;-74
2023/12/10 03:37:45;;;;;;;39.20;13.75;;;8.20;99.90;;;;;;4900000;28;20043;-72
2023/12/10 03:40:12;;;;;;;35.33;13.75;;;8.20;99.90;;;;;;4926266;28;20043;-73
2023/12/10 03:42:39;;;;;;;24.25;12.55;;;8.20;99.90;;;;;;4916468;28;20179;-73
2023/12/10 03:45:07;;;;;;;23.58;12.35;;;8.10;99.90;;;;;;4916495;28;20069;-72
2023/12/10 03:47:34;;;;;;;30.77;12.52;;;8.20;99.90;;;;;;4919347;29;20051;-74
2023/12/10 03:50:01;;;;;;;28.02;10.50;;;8.00;99.90;;;;;;4913630;28;20067;-73
2023/12/10 03:52:28;;;;;;;33.00;10.88;;;8.00;99.90;;;;;;4912022;28;20057;-73
2023/12/10 03:54:55;;;;;;;29.70;10.90;;;7.90;99.90;;;;;;4913851;28;20073;-73
2023/12/10 03:57:22;;;;;;;29.02;8.73;;;7.80;99.90;;;;;;4910492;28;20062;-74
2023/12/10 03:59:49;;;;;;;32.90;8.55;;;7.80;99.90;;;;;;4904111;28;20047;-74
2023/12/10 04:02:16;;;;;;;24.95;8.00;;;7.70;99.90;;;;;;4904923;28;20040;-74
2023/12/10 04:04:43;;;;;;;31.75;8.93;;;7.70;99.90;;;;;;4899149;28;20091;-74
2023/12/10 04:07:10;;;;;;;33.08;8.43;;;7.70;99.90;;;;;;4908114;28;20071;-73
2023/12/10 04:09:37;;;;;;;30.98;9.57;;;7.70;99.90;;;;;;4919636;28;20410;-73
2023/12/10 04:12:05;;;;;;;23.85;6.97;;;7.60;99.90;;;;;;4928376;28;20534;-74
2023/12/10 04:14:47;;;;;;;27.80;8.73;;;7.70;99.90;;;;;;4917150;28;20068;-75
2023/12/10 04:17:14;;;;;;;29.85;8.43;;;7.70;99.90;;;;;;4896622;28;20050;-74
2023/12/10 04:19:42;;;;;;;23.50;8.00;;;7.70;99.90;;;;;;4916783;28;20129;-74
2023/12/10 04:22:09;;;;;;;26.00;8.95;;;7.80;99.90;;;;;;4914514;28;20047;-75
2023/12/10 04:24:37;;;;;;;20.60;9.18;;;7.80;99.90;;;;;;4912779;28;20490;-73
2023/12/10 04:27:04;;;;;;;32.65;9.20;;;7.80;99.90;;;;;;4910780;28;20048;-74
2023/12/10 04:29:31;;;;;;;39.95;9.20;;;7.80;99.90;;;;;;4909411;29;20125;-74
2023/12/10 04:31:57;;;;;;;29.58;11.52;;;7.80;99.90;;;;;;4921132;28;20050;-75
2023/12/10 04:34:24;;;;;;;18.15;8.98;;;7.80;99.90;;;;;;4904940;29;20054;-74
2023/12/10 04:36:51;;;;;;;18.77;9.82;;;7.80;99.90;;;;;;4908227;28;20051;-74
2023/12/10 04:39:19;;;;;;;20.25;8.88;;;7.90;99.90;;;;;;4917275;28;20142;-74
2023/12/10 04:41:46;;;;;;;20.23;9.68;;;7.80;99.90;;;;;;4911351;28;20063;-75
2023/12/10 04:44:16;;;;;;;19.27;9.35;;;7.80;99.90;;;;;;4906851;28;20065;-76
2023/12/10 04:46:49;;;;;;;29.70;9.55;;;7.90;99.90;;;;;;4908505;28;20115;-74
2023/12/10 04:49:29;;;;;;;23.25;8.73;;;7.80;99.90;;;;;;4924942;28;20059;-75
2023/12/10 04:51:56;;;;;;;19.88;9.05;;;7.80;99.90;;;;;;4925636;28;20047;-73
2023/12/10 04:54:27;;;;;;;27.58;8.25;;;7.70;99.90;;;;;;4904695;29;20051;-73
2023/12/10 04:56:54;;;;;;;25.17;8.48;;;7.60;99.90;;;;;;4910165;28;20074;-74
2023/12/10 04:59:20;;;;;;;27.58;7.47;;;7.60;99.90;;;;;;4911387;28;20047;-74
2023/12/10 05:01:47;;;;;;;21.00;7.80;;;7.60;99.90;;;;;;4925777;28;20051;-74
2023/12/10 05:04:14;;;;;;;25.65;7.47;;;7.50;99.90;;;;;;4894392;28;20063;-74
2023/12/10 05:06:41;;;;;;;15.75;7.15;;;7.40;99.90;;;;;;4904043;28;20079;-73
2023/12/10 05:09:10;;;;;;;20.95;5.88;;;7.40;99.90;;;;;;4921726;28;20139;-72
2023/12/10 05:11:37;;;;;;;25.20;6.82;;;7.30;99.90;;;;;;4920815;28;20061;-70
2023/12/10 05:14:06;;;;;;;17.17;5.85;;;7.30;99.90;;;;;;4924430;28;20044;-71
2023/12/10 05:16:36;;;;;;;20.15;5.85;;;7.30;99.90;;;;;;4906618;29;20046;-73
2023/12/10 05:19:03;;;;;;;19.40;5.07;;;7.20;99.90;;;;;;4930697;28;20043;-72
2023/12/10 05:21:30;;;;;;;14.50;5.28;;;7.20;99.90;;;;;;4913803;29;20576;-72
2023/12/10 05:24:01;;;;;;;20.65;5.60;;;7.10;99.90;;;;;;4909159;28;20055;-72
2023/12/10 05:26:28;;;;;;;14.80;5.05;;;7.10;99.90;;;;;;4918106;29;20137;-72
2023/12/10 05:29:01;;;;;;;15.60;4.82;;;7.10;99.90;;;;;;4907195;28;20044;-72
2023/12/10 05:31:30;;;;;;;20.52;4.40;;;7.00;99.90;;;;;;4940787;28;20059;-71
2023/12/10 05:33:57;;;;;;;18.60;5.47;;;7.00;99.90;;;;;;4912183;28;20051;-70
2023/12/10 05:36:25;;;;;;;19.10;4.75;;;7.00;99.90;;;;;;4909162;28;20071;-71
2023/12/10 05:38:51;;;;;;;16.23;3.72;;;6.90;99.90;;;;;;4928468;28;20039;-71
2023/12/10 05:41:19;;;;;;;9.20;4.18;;;6.90;99.90;;;;;;4916633;28;20055;-71
2023/12/10 05:43:46;;;;;;;17.27;4.65;;;6.90;99.90;;;;;;4923374;28;20051;-73
2023/12/10 05:46:13;;;;;;;18.30;3.50;;;6.80;99.90;;;;;;4928642;28;20174;-72
2023/12/10 05:48:40;;;;;;;18.13;4.00;;;6.80;99.90;;;;;;4924959;28;20051;-71
2023/12/10 05:51:07;;;;;;;10.40;4.00;;;6.80;99.90;;;;;;4910175;28;20048;-70
2023/12/10 05:53:34;;;;;;;13.65;4.80;;;6.80;99.90;;;;;;4921690;29;20051;-72
2023/12/10 05:56:01;;;;;;;14.60;3.80;;;6.80;99.90;;;;;;4914844;28;20047;-72
2023/12/10 05:58:29;;;;;;;20.98;4.03;;;6.80;99.90;;;;;;4930333;28;20146;-71
2023/12/10 06:00:57;;;;;;;14.75;3.60;;;6.80;99.90;;;;;;4908202;28;20047;-71
2023/12/10 06:03:24;;;;;;;15.15;3.90;;;6.70;99.90;;;;;;4915155;28;20829;-71
2023/12/10 06:05:52;;;;;;;17.05;4.03;;;6.70;99.90;;;;;;4906703;28;20135;-70
2023/12/10 06:08:19;;;;;;;17.40;3.40;;;6.70;99.90;;;;;;4915223;28;20070;-73
2023/12/10 06:10:46;;;;;;;15.05;3.47;;;6.70;99.90;;;;;;4905801;28;20044;-71
2023/12/10 06:13:13;;;;;;;10.10;2.85;;;6.70;99.90;;;;;;4908241;28;20126;-72
2023/12/10 06:15:40;;;;;;;19.67;3.55;;;6.70;99.90;;;;;;4930356;28;20627;-72
2023/12/10 06:18:07;;;;;;;18.83;4.35;;;6.80;99.90;;;;;;4914420;28;20043;-71
2023/12/10 06:20:34;;;;;;;13.65;3.40;;;6.70;99.90;;;;;;4935212;28;20043;-71
2023/12/10 06:23:01;;;;;;;13.52;3.60;;;6.70;99.90;;;;;;4926504;28;20938;-70
2023/12/10 06:25:28;;;;;;;16.02;5.03;;;6.70;99.90;;;;;;4912958;28;20157;-72
2023/12/10 06:27:56;;;;;;;17.15;4.30;;;6.70;99.90;;;;;;4911789;28;20530;-70
2023/12/10 06:30:23;;;;;;;18.60;4.22;;;6.70;99.90;;;;;;4892668;28;20052;-70
2023/12/10 06:32:50;;;;;;;16.98;4.28;;;6.70;99.90;;;;;;4919466;28;20130;-71
2023/12/10 06:35:22;;;;;;;15.93;4.90;;;6.70;99.90;;;;;;4913286;28;20085;-71
2023/12/10 06:37:49;;;;;;;13.68;4.40;;;6.80;99.90;;;;;;4913825;28;20070;-72
2023/12/10 06:40:16;;;;;;;19.20;5.68;;;6.70;99.90;;;;;;4927297;28;20086;-72
2023/12/10 06:42:43;;;;;;;29.90;6.05;;;6.80;99.90;;;;;;4919649;28;20043;-73
2023/12/10 06:45:12;;;;;;;25.70;6.43;;;6.80;99.90;;;;;;4893152;28;20047;-70
2023/12/10 06:47:39;;;;;;;26.40;6.18;;;6.80;99.90;;;;;;4909556;28;20716;-69
2023/12/10 06:50:07;;;;;;;15.60;5.65;;;6.70;99.90;;;;;;4908278;28;20042;-72
2023/12/10 06:52:34;;;;;;;19.25;6.25;;;6.80;99.90;;;;;;4917553;29;20043;-72
2023/12/10 06:55:01;;;;;;;21.75;5.75;;;6.80;99.90;;;;;;4906135;28;20047;-70
2023/12/10 06:57:28;;;;;;;20.08;7.45;;;6.80;99.90;;;;;;4920926;28;21004;-73
2023/12/10 06:59:55;;;;;;;21.70;5.45;;;6.70;99.90;;;;;;4910139;28;20438;-69
2023/12/10 07:02:22;;;;;;;23.00;7.57;;;6.80;99.90;;;;;;4899424;28;20047;-70
2023/12/10 07:04:49;;;;;;;19.48;6.00;;;6.70;99.90;;;;;;4897883;28;20568;-70
2023/12/10 07:07:16;;;;;;;25.08;6.22;;;6.70;99.90;;;;;;4928043;28;20083;-73
2023/12/10 07:09:43;;;;;;;22.98;6.60;;;6.70;99.90;;;;;;4916189;28;20127;-71
2023/12/10 07:12:10;;;;;;;19.88;6.53;;;6.70;99.90;;;;;;4920323;28;20686;-70
2023/12/10 07:14:39;;;;;;;25.40;6.03;;;6.60;99.90;;;;;;4921983;29;20051;-73
2023/12/10 07:17:11;;;;;;;23.38;5.55;;;6.60;99.90;;;;;;4925182;28;20628;-73
2023/12/10 07:19:38;;;;;;;26.25;6.28;;;6.60;99.90;;;;;;4927934;28;20058;-72
2023/12/10 07:22:05;;;;;;;26.55;6.03;;;6.60;99.90;;;;;;4913607;28;20518;-72
2023/12/10 07:24:32;;;;;;;25.02;5.75;;;6.60;99.90;;;;;;4927622;28;20047;-72
2023/12/10 07:26:59;;;;;;;26.70;5.82;;;6.60;99.90;;;;;;4897794;28;20044;-71
2023/12/10 07:29:34;;;;;;;26.17;5.47;;;6.60;99.90;;;;;;4928010;28;20048;-70
2023/12/10 07:32:05;;;;;;;13.25;4.82;;;6.60;99.90;;;;;;4893001;28;20067;-72
2023/12/10 07:34:35;;;;;;;21.42;6.45;;;6.60;99.90;;;;;;4899305;28;20058;-71
2023/12/10 07:37:03;;;;;;;23.55;5.20;;;6.70;99.90;;;;;;4923902;28;20050;-72
2023/12/10 07:39:30;;;;;;;26.30;7.63;;;6.70;99.90;;;;;;4902367;28;20070;-70
2023/12/10 07:41:58;;;;;;;17.65;6.82;;;6.70;99.90;;;;;;4928702;28;20779;-70
2023/12/10 07:44:28;;;;;;;18.48;5.93;;;6.70;99.90;;;;;;4895868;28;20074;-70
2023/12/10 07:46:56;;;;;;;15.10;5.38;;;6.70;99.90;;;;;;4911523;28;20058;-71
2023/12/10 07:49:23;;;;;;;26.80;6.53;;;6.80;99.90;;;;;;4909477;28;20679;-72
2023/12/10 07:51:51;;;;;;;24.77;5.55;;;6.80;99.90;;;;;;4905570;28;20043;-71
2023/12/10 07:54:28;;;;;;;16.25;5.57;;;6.80;99.90;;;;;;4906762;28;20549;-71
2023/12/10 07:56:54;;;;;;;18.25;5.53;;;6.80;99.90;;;;;;4925086;28;20031;-72
2023/12/10 07:59:21;;;;;;;15.88;4.55;;;6.80;99.90;;;;;;4895003;28;20070;-72
2023/12/10 08:01:52;;;;;;;24.40;6.60;;;6.80;99.90;;;;;;4910751;28;20054;-71
2023/12/10 08:04:19;;;;;;;17.63;5.22;;;6.80;99.90;;;;;;4920406;28;21305;-71
2023/12/10 08:06:57;;;;;;;30.23;6.47;;;6.80;99.90;;;;;;4923717;28;20051;-72
2023/12/10 08:09:23;;;;;;;19.52;4.65;;;6.80;99.90;;;;;;4895790;28;20070;-71
2023/12/10 08:11:50;;;;;;;19.65;6.78;;;6.80;99.90;;;;;;4924406;28;20043;-70
2023/12/10 08:14:20;;;;;;;22.60;5.15;;;6.80;99.90;;;;;;4929667;28;20098;-72
2023/12/10 08:17:01;;;;;;;24.42;5.22;;;6.90;99.90;;;;;;4896567;28;20118;-71
2023/12/10 08:19:28;;;;;;;15.48;5.47;;;6.90;99.90;;;;;;4926217;28;20047;-71
2023/12/10 08:21:55;;;;;;;20.55;5.45;;;6.90;99.90;;;;;;4907001;28;20043;-70
2023/12/10 08:24:23;;;;;;;27.08;5.47;;;6.80;99.90;;;;;;4905412;28;20519;-71
2023/12/10 08:26:51;;;;;;;29.33;6.93;;;6.80;99.90;;;;;;4913769;28;20525;-72
2023/12/10 08:29:18;;;;;;;15.50;5.47;;;6.90;99.90;;;;;;4921759;28;20047;-70
2023/12/10 08:31:51;;;;;;;22.83;5.28;;;6.80;99.90;;;;;;4927625;28;20051;-70
2023/12/10 08:34:21;;;;;;;23.90;5.55;;;6.80;99.90;;;;;;4922314;28;20077;-71
2023/12/10 08:37:03;;;;;;;35.13;8.63;;;6.80;99.90;;;;;;4906621;28;20066;-71
2023/12/10 08:39:31;;;;;;;21.50;5.97;;;6.80;99.90;;;;;;4912286;28;20154;-72
2023/12/10 08:42:04;;;;;;;25.58;6.28;;;6.80;99.90;;;;;;4924617;28;20039;-71
2023/12/10 08:45:01;;;;;;;23.13;5.72;;;6.80;99.90;;;;;;4915533;28;20047;-73
2023/12/10 08:47:27;;;;;;;32.33;7.03;;;6.80;99.90;;;;;;4916030;28;20122;-72
2023/12/10 08:49:54;;;;;;;20.08;5.93;;;6.80;99.90;;;;;;4922546;28;20047;-70
2023/12/10 08:52:23;;;;;;;29.70;7.22;;;6.80;99.90;;;;;;4917670;28;21254;-69
2023/12/10 08:54:50;;;;;;;27.95;7.10;;;6.80;99.90;;;;;;4926225;28;20047;-69
2023/12/10 08:57:17;;;;;;;26.85;5.72;;;6.80;99.90;;;;;;4912381;28;20512;-71
2023/12/10 08:59:45;;;;;;;27.98;6.20;;;6.80;99.90;;;;;;4925465;28;20054;-70
2023/12/10 09:02:12;;;;;;;22.05;5.95;;;6.80;99.90;;;;;;4906478;28;20928;-70
2023/12/10 09:04:40;;;;;;;28.42;6.45;;;6.80;99.90;;;;;;4913779;28;20075;-70
2023/12/10 09:07:07;;;;;;;20.45;5.82;;;6.80;99.90;;;;;;4924403;28;20055;-70
2023/12/10 09:09:34;;;;;;;22.25;6.82;;;6.80;99.90;;;;;;4916421;28;20051;-71
2023/12/10 09:12:01;;;;;;;33.03;6.68;;;6.80;99.90;;;;;;4912226;28;21047;-71
2023/12/10 09:14:28;;;;;;;26.48;6.78;;;6.80;99.90;;;;;;4909190;28;20043;-70
2023/12/10 09:16:56;;;;;;;31.10;8.98;;;6.80;99.90;;;;;;4909246;28;20043;-72
2023/12/10 09:19:27;;;;;;;25.58;9.32;;;6.90;99.90;;;;;;4893964;28;20883;-71
2023/12/10 09:21:55;;;;;;;20.98;8.52;;;6.90;99.90;;;;;;4894222;28;20044;-70
2023/12/10 09:24:22;;;;;;;29.38;8.35;;;6.90;99.90;;;;;;4895608;28;20044;-70
2023/12/10 09:26:51;;;;;;;32.03;9.35;;;7.00;99.90;;;;;;4923481;28;20136;-72
2023/12/10 09:29:18;;;;;;;25.60;9.30;;;7.00;99.90;;;;;;4923445;28;20055;-71
2023/12/10 09:31:51;;;;;;;20.77;8.63;;;7.00;99.90;;;;;;4898686;28;20051;-70
2023/12/10 09:34:18;;;;;;;31.38;11.43;;;7.00;99.90;;;;;;4924839;28;20608;-72
2023/12/10 09:36:47;;;;;;;28.88;9.68;;;7.00;99.90;;;;;;4910706;28;20131;-71
2023/12/10 09:39:14;;;;;;;21.63;9.30;;;7.00;99.90;;;;;;4917694;28;20054;-71
2023/12/10 09:41:41;;;;;;;29.77;10.77;;;7.00;99.90;;;;;;4898229;28;20051;-70
2023/12/10 09:44:12;;;;;;;26.35;9.00;;;7.00;99.90;;;;;;4906614;28;20051;-71
2023/12/10 09:46:39;;;;;;;24.33;10.05;;;7.00;99.90;;;;;;4892514;28;20047;-71
2023/12/10 09:49:06;;;;;;;23.25;10.02;;;7.10;99.90;;;;;;4913733;28;20051;-69
2023/12/10 09:51:36;;;;;;;24.02;10.38;;;7.10;99.90;;;;;;4904370;28;20513;-70
2023/12/10 09:54:10;;;;;;;24.88;9.18;;;7.20;99.90;;;;;;4909016;28;20031;-71
2023/12/10 09:56:39;;;;;;;24.70;10.38;;;7.20;99.90;;;;;;4909693;28;20047;-71
2023/12/10 09:59:06;;;;;;;34.63;10.75;;;7.20;99.90;;;;;;4929295;28;20043;-69
2023/12/10 10:01:33;;;;;;;24.70;11.45;;;7.20;99.90;;;;;;4896794;28;20171;-71
2023/12/10 10:04:01;;;;;;;19.50;11.65;;;7.30;99.90;;;;;;4915721;28;20142;-71
2023/12/10 10:06:29;;;;;;;29.27;12.13;;;7.40;99.90;;;;;;4917611;28;20055;-72
2023/12/10 10:08:59;;;;;;;20.05;10.98;;;7.40;99.90;;;;;;4896867;28;20606;-71
2023/12/10 10:11:32;;;;;;;20.77;10.60;;;7.50;99.90;;;;;;4918200;28;20063;-70
2023/12/10 10:14:00;;;;;;;36.83;10.43;;;7.40;99.90;;;;;;4932355;28;20040;-72
2023/12/10 10:16:28;;;;;;;20.65;8.95;;;7.40;99.90;;;;;;4911974;28;21171;-70
2023/12/10 10:18:54;;;;;;;31.92;10.40;;;7.40;99.90;;;;;;4916874;28;20054;-72
2023/12/10 10:21:22;;;;;;;22.08;10.30;;;7.40;99.90;;;;;;4904419;29;20106;-70
2023/12/10 10:23:49;;;;;;;19.45;9.57;;;7.30;99.90;;;;;;4909645;28;20047;-71
2023/12/10 10:26:17;;;;;;;23.88;9.52;;;7.30;99.90;;;;;;4927735;28;20700;-71
2023/12/10 10:28:47;;;;;;;19.00;8.88;;;7.30;99.90;;;;;;4911661;28;20079;-71
2023/12/10 10:31:15;;;;;;;18.02;8.15;;;7.20;99.90;;;;;;4911257;28;20038;-71
2023/12/10 10:33:47;;;;;;;23.20;8.35;;;7.20;99.90;;;;;;4916909;28;20723;-72
2023/12/10 10:36:21;;;;;;;31.35;9.38;;;7.20;99.90;;;;;;4932519;28;20135;-71
2023/12/10 10:38:49;;;;;;;;;;;7.10;99.90;;;;;;4913454;28;20455;-71
2023/12/10 10:41:19;;;;;;;17.98;8.75;;;7.10;99.90;;;;;;4927575;28;19933;-70
2023/12/10 10:43:46;;;;;;;18.45;7.45;;;7.00;99.90;;;;;;4930349;28;20123;-70
2023/12/10 10:46:13;;;;;;;30.80;11.32;;;7.00;99.90;;;;;;4931448;28;20040;-70
2023/12/10 10:48:41;;;;;;;19.75;8.45;;;7.00;99.90;;;;;;4913010;28;20076;-69
2023/12/10 10:51:09;;;;;;;26.08;7.80;;;7.00;99.90;;;;;;4916759;28;20048;-70
2023/12/10 10:53:38;;;;;;;20.77;9.00;;;7.00;99.90;;;;;;4898041;28;20099;-71
2023/12/10 10:56:06;;;;;;;21.60;9.20;;;7.00;99.90;;;;;;4925146;28;20063;-71
2023/12/10 10:58:32;;;;;;;16.08;8.73;;;7.00;99.90;;;;;;4918852;28;20134;-70
2023/12/10 11:01:00;;;;;;;26.80;9.70;;;7.00;99.90;;;;;;4928759;28;20049;-74
2023/12/10 11:03:30;;;;;;;23.80;9.52;;;7.00;99.90;;;;;;4925607;28;20067;-73
2023/12/10 11:06:07;;;;;;;23.08;9.15;;;7.10;99.90;;;;;;4898799;28;20051;-71
2023/12/10 11:08:35;;;;;;;34.63;10.60;;;7.10;99.90;;;;;;4898199;28;20078;-71
2023/12/10 11:11:02;;;;;;;22.10;9.82;;;7.20;99.90;;;;;;4899595;28;20054;-71
2023/12/10 11:13:44;;;;;;;30.58;13.10;;;7.10;99.90;;;;;;4919139;28;20043;-73
2023/12/10 11:16:11;;;;;;;24.75;10.55;;;7.20;99.90;;;;;;4911074;28;20039;-69
2023/12/10 11:18:57;;;;;;;28.38;10.50;;;7.10;99.90;;;;;;4927283;28;20132;-70
2023/12/10 11:21:25;;;;;;;25.13;10.25;;;7.10;99.90;;;;;;4906765;28;20063;-72
2023/12/10 11:23:52;;;;;;;22.98;9.23;;;7.10;99.90;;;;;;4912583;28;20067;-73
2023/12/10 11:26:18;;;;;;;27.58;9.32;;;7.10;99.90;;;;;;4914803;28;20081;-71
2023/12/10 11:28:46;;;;;;;42.50;12.07;;;7.10;99.90;;;;;;4919976;28;20048;-73
2023/12/10 11:31:13;;;;;;;28.08;9.73;;;7.10;99.90;;;;;;4914855;28;20048;-70
2023/12/10 11:33:41;;;;;;;31.30;10.43;;;7.10;99.90;;;;;;4905041;28;20054;-72
2023/12/10 11:36:09;;;;;;;28.50;9.02;;;7.10;99.90;;;;;;4928155;28;20682;-73
2023/12/10 11:38:56;;;;;;;40.78;12.30;;;7.10;99.90;;;;;;4924145;28;20621;-74
2023/12/10 11:41:27;;;;;;;20.70;9.30;;;7.10;99.90;;;;;;4908907;28;20074;-72
2023/12/10 11:43:54;;;;;;;25.10;8.60;;;7.10;99.90;;;;;;4926101;28;20083;-74
2023/12/10 11:46:23;;;;;;;33.33;10.55;;;7.00;99.90;;;;;;4904935;28;20406;-72
2023/12/10 11:49:07;;;;;;;33.75;9.32;;;7.00;99.90;;;;;;4909389;28;21153;-72
2023/12/10 11:51:38;;;;;;;21.45;8.07;;;7.00;99.90;;;;;;4916435;28;20070;-72
2023/12/10 11:54:07;;;;;;;33.60;11.23;;;7.00;99.90;;;;;;4913906;28;20035;-72
2023/12/10 11:56:34;;;;;;;29.42;10.23;;;7.00;99.90;;;;;;4908388;28;20066;-72
2023/12/10 11:59:02;;;;;;;33.40;11.70;;;7.00;99.90;;;;;;4896647;28;20039;-73
2023/12/10 12:01:31;;;;;;;30.30;11.40;;;7.00;99.90;;;;;;4913644;28;20051;-72
2023/12/10 12:03:57;;;;;;;35.10;11.57;;;7.00;99.90;;;;;;4917534;28;20047;-72
2023/12/10 12:06:37;;;;;;;41.83;12.63;;;7.00;99.90;;;;;;4916847;28;20538;-72
2023/12/10 12:09:04;;;;;;;28.65;10.45;;;7.00;99.90;;;;;;4901250;28;21977;-72
2023/12/10 12:11:32;;;;;;;27.13;11.15;;;7.00;99.90;;;;;;4896918;28;20541;-72
2023/12/10 12:14:02;;;;;;;33.90;11.18;;;7.10;99.90;;;;;;4929087;28;20091;-73
2023/12/10 12:16:29;;;;;;;36.53;13.40;;;7.10;99.90;;;;;;4909971;28;20051;-71
2023/12/10 12:18:56;;;;;;;24.70;11.52;;;7.10;99.90;;;;;;4913429;28;20153;-72
2023/12/10 12:21:23;;;;;;;27.75;13.43;;;7.10;99.90;;;;;;4908929;28;20912;-72
2023/12/10 12:23:50;;;;;;;34.33;13.07;;;7.20;99.90;;;;;;4908574;28;20074;-71
2023/12/10 12:26:17;;;;;;;32.50;14.40;;;7.20;99.90;;;;;;4930116;28;20054;-71
2023/12/10 12:28:45;;;;;;;47.65;16.65;;;7.20;99.90;;;;;;4905274;28;20054;-70
2023/12/10 12:31:14;;;;;;;27.27;14.90;;;7.30;99.90;;;;;;4917026;28;20043;-72
2023/12/10 12:33:41;;;;;;;30.67;16.08;;;7.30;99.90;;;;;;4918056;29;20046;-72
2023/12/10 12:36:08;;;;;;;33.47;19.23;;;7.40;99.90;;;;;;4918259;28;21426;-72
2023/12/10 12:38:35;;;;;;;25.77;17.13;;;7.50;99.90;;;;;;4920348;28;20050;-71
2023/12/10 12:41:03;;;;;;;26.38;19.20;;;7.50;99.90;;;;;;4898775;28;20093;-71
2023/12/10 12:43:30;;;;;;;20.73;18.48;;;7.60;99.90;;;;;;4902961;28;20246;-72
2023/12/10 12:45:58;;;;;;;28.30;19.70;;;7.60;99.90;;;;;;4912608;28;20054;-72
2023/12/10 12:48:25;;;;;;;22.27;19.40;;;7.60;99.90;;;;;;4909310;28;20054;-72